ADDS METAR Data INFO
IDs: Format: Raw Decoded Include TAF

Data at: 2252 UTC 22 Jun 2018

KLEE 222153Z 27009KT 10SM FEW040 SCT047 32/24 A2992 RMK AO2 LTG DSNT NE-SE SLP130 T03220244
KLEE 222053Z 28009KT 10SM FEW042 33/24 A2993 RMK AO2 LTG DSNT NE-S TSB18 SLP133 60001 T03280239 56014
KLEE 222039Z 10SM FEW043 SCT090 33/25 A2993 RMK AO2 LTG DSNT NE-S TSB18 T03280250
KLEE 222024Z 14005KT 10SM TS FEW044 SCT090 31/26 A2993 RMK AO2 LTG DSNT E-S TSB18 T03110256
KLEE 221953Z 32006KT 10SM FEW044 FEW055 32/26 A2993 RMK AO2 RAB1855E30 TSB20 SLP135 P0001 T03170256
KLEE 221943Z 32005KT 10SM VCTS SCT045 SCT100 32/26 A2994 RMK AO2 LTG DSNT SE RAB1855E30 TSB20 P0001 T03170256
KLEE 221926Z 33008KT 7SM -TSRA SCT047 BKN070 OVC110 29/24 A2995 RMK AO2 RAB1855 TSB20 P0001 T02940244
KLEE 221853Z 34013KT 10SM SCT039 BKN047 BKN060 30/24 A2996 RMK AO2 SLP144 T03000239
KLEE 221753Z 30005KT 10SM BKN040 BKN055 32/25 A2997 RMK AO2 SLP147 T03170250 10328 20267 58007
KLEE 221719Z VRB04KT 10SM FEW040 32/24 A2997 RMK AO2 T03220239
KLEE 221704Z 21006KT 10SM VCTS FEW040 32/24 A2998 RMK AO2 T03220239
KLEE 221653Z 28006KT 10SM FEW039 32/24 A2998 RMK AO2 SLP152 T03170239
KLEE 221553Z 28009KT 10SM FEW032 FEW055 SCT085 31/25 A2999 RMK AO2 SLP152 T03110250
KLEE 221453Z 27005KT 10SM CLR 31/25 A2999 RMK AO2 SLP154 T03060250 50001
KLEE 221353Z 27007KT 10SM CLR 29/26 A2999 RMK AO2 SLP155 T02890256
KLEE 221253Z 26004KT 10SM CLR 27/26 A3000 RMK AO2 SLP158 T02720256
KLEE 221153Z 27004KT 10SM CLR 27/26 A2998 RMK AO2 SLP152 70101 T02670256 10272 20261 53021
KLEE 221053Z 26003KT 10SM CLR 26/25 A2996 RMK AO2 SLP144 T02610250
KLEE 220953Z AUTO 26004KT 10SM CLR 26/26 A2994 RMK AO2 SLP137 T02610256
KLEE 220853Z AUTO 24005KT 9SM CLR 26/26 A2992 RMK AO2 SLP132 T02610256 55002
KLEE 220753Z AUTO 23005KT 10SM CLR 27/26 A2992 RMK AO2 SLP129 T02670256
KLEE 220653Z AUTO 22005KT 10SM SCT020 27/26 A2993 RMK AO2 SLP133 T02670256
KLEE 220553Z AUTO 22004KT 10SM CLR 27/26 A2993 RMK AO2 SLP134 60000 T02670256 10278 20267 58014
KLEE 220453Z AUTO 26006KT 10SM CLR 27/26 A2994 RMK AO2 SLP138 T02720261 403000244
KLEE 220353Z AUTO 23003KT 10SM CLR 27/26 A2996 RMK AO2 SLP144 T02720261
KLEE 220253Z AUTO 25003KT 10SM CLR 27/26 A2997 RMK AO2 SLP148 60000 T02720261 51017
KLEE 220153Z AUTO 24005KT 10SM CLR 28/26 A2996 RMK AO2 RAB00E40 SLP144 P0000 T02780261
KLEE 220053Z AUTO 00000KT 10SM CLR 27/26 A2994 RMK AO2 SLP137 T02720261
KLEE 212353Z 21003KT 10SM CLR 28/26 A2992 RMK AO2 SLP131 60000 T02780261 10283 20256 55001
KLEE 212253Z 24004KT 10SM CLR 28/26 A2990 RMK AO2 SLP124 T02780256
KLEE 212153Z 28005KT 10SM CLR 28/26 A2991 RMK AO2 SLP126 T02780256
KLEE 212053Z 25006KT 10SM CLR 28/26 A2992 RMK AO2 LTG DSNT NE SLP132 60000 T02780261 56016
KLEE 211953Z 30004KT 10SM FEW037 27/26 A2994 RMK AO2 RAB13E30 SLP137 P0000 T02670256
KLEE 211853Z 29007KT 10SM SCT041 SCT055 26/26 A2995 RMK AO2 RAB33E44 SLP139 P0000 T02610256
KLEE 211753Z 25004KT 10SM CLR 26/25 A2997 RMK AO2 LTG DSNT NE AND E RAB08E21 SLP148 P0000 60101 T02560250 10300 20244 51008
KLEE 211736Z 25003KT 10SM FEW032 26/25 A2997 RMK AO2 LTG DSNT NE RAB08E21 P0000 T02560250
KLEE 211729Z 24003KT 10SM VCTS SCT033 26/25 A2997 RMK AO2 LTG DSNT N AND NE RAB08E21 P0000 T02560250
KLEE 211700Z VRB06KT 10SM SCT008 SCT013 26/25 A2997 RMK AO2 LTG DSNT N-SE T02560250
KLEE 211653Z 22005KT 10SM BKN010 BKN013 26/25 A2997 RMK AO2 LTG DSNT N-SE RAE15 TSE07 CIG 007V012 SLP148 P0002 T02560250
KLEE 211644Z VRB05KT 10SM SCT010 26/25 A2997 RMK AO2 LTG DSNT N-SE RAE15 TSE07 P0002 T02560250
KLEE 211609Z 25007KT 7SM VCTS -RA FEW008 BKN070 OVC095 25/25 A2997 RMK AO2 LTG DSNT ALQDS TSE07 P0002 T02500250
KLEE 211600Z 25009G16KT 3SM TSRA BR SCT042 BKN050 OVC095 25/25 A2997 RMK AO2 LTG DSNT ALQDS P0001 T02500250
KLEE 211553Z 25011G16KT 1SM TSRA BR BKN036 BKN050 OVC070 25/25 A2997 RMK AO2 PK WND 28033/1518 LTG DSNT ALQDS RAB11 TSB08 SLP148 P0099 T02500250
KLEE 211533Z 27010G21KT 1SM +TSRA BR FEW010 BKN018 OVC038 25/24 A2998 RMK AO2 PK WND 28033/1518 LTG DSNT ALQDS RAB11 TSB08 P0081 T02500244
KLEE 211520Z 27017G33KT 1/4SM +TSRA FG BKN011 BKN019 OVC042 24/24 A2998 RMK AO2 PK WND 28033/1518 LTG DSNT ALQDS RAB11 TSB08 P0046 T02440239
KLEE 211515Z 28022G30KT 1/2SM +TSRA FG SCT012 SCT023 BKN037 26/25 A2997 RMK AO2 PK WND 28030/1515 LTG DSNT ALQDS RAB11 TSB08 P0017 T02560250
KLEE 211513Z 28020G28KT 1SM -TSRA BR FEW012 SCT019 BKN028 26/25 A2996 RMK AO2 PK WND 28028/1513 LTG DSNT ALQDS RAB11 TSB08 P0007 T02560250
KLEE 211508Z 30014G21KT 7SM TS FEW012 SCT019 BKN028 26/25 A2997 RMK AO2 LTG DSNT ALQDS TSB08 T02610250
KLEE 211453Z 23004KT 10SM VCTS FEW037 FEW080 FEW110 30/26 A2995 RMK AO2 LTG DSNT SW-NW SLP140 T03000261 55003
KLEE 211448Z 24005KT 10SM VCTS FEW022 SCT110 30/26 A2995 RMK AO2 LTG DSNT SW-NW
KLEE 211434Z 28004KT 10SM SCT024 SCT043 BKN080 29/26 A2994 RMK AO2 LTG DSNT SW-NW T02940261
KLEE 211407Z 25006KT 10SM SCT017 BKN022 29/27 A2994 RMK AO2 LTG DSNT W AND NW T02940267
KLEE 211353Z 25006KT 10SM FEW013 SCT021 29/27 A2995 RMK AO2 SLP139 T02940272
KLEE 211253Z 23007KT 10SM FEW065 28/27 A2996 RMK AO2 SLP143 T02830267
KLEE 211153Z 22005KT 10SM CLR 27/26 A2995 RMK AO2 SLP139 70046 T02670261 10267 20261 51011
KLEE 211053Z 21004KT 10SM FEW019 FEW032 SCT044 26/26 A2993 RMK AO2 SLP135 T02610261